x

Destruction Island, Wa (desw1) Weather Station

3:00 - Sat 29th Apr 2017 All times are PDT. -7 hours from GMT.

  • Wind
    7mph, 8mph gusts
  • Aire Temp 45°f
  • Sea Pressure 1026.4mb
  • Destruction Island, Wa
  • Destruction Island, Wa

More Historic Weather Station data

Upgrade to MSW Pro to gain access to the past 30 days of data for over 8000 Wavebouys and Weather Stations around the globe.

Join Pro

Comparision Forecast

View Surf forecast
   
sáb 04/29 3:00 7 8 mph 1026.4mb 45f
2:00 7
mph
1027mb 45f
1:00 5
mph
1027.3mb 47f
12:00 5 6 mph 1027mb 47f
vie 04/28 11:00 7 8 mph 1027.9mb 49f
10:00 11 13 mph 1028.2mb 49f
9:00 11 13 mph 1028.1mb 49f
8:00 10 13 mph 1028.1mb 49f
6:00 9 13 mph 1028.6mb 51f
5:00 8 10 mph 1028.6mb 52f
4:00 11 15 mph 1028.8mb 52f
3:00 13 14 mph 1029.1mb 52f
2:00 11 14 mph 1029mb 52f
1:00 11 13 mph 1029.1mb 53f
12:00 11 13 mph 1028.8mb 52f
11:00 13 15 mph 1028.8mb 51f
10:00 1 3 mph 1028.4mb 48f
9:00 3 5 mph 1027.9mb 47f
8:00 6 7 mph 1027.1mb 45f
7:00 8
mph
1026.6mb 45f
6:00 3 7 mph 1026mb 45f
5:00 5 7 mph 1025.6mb 46f
4:00 21 23 mph 1025mb 49f
3:00 20 21 mph 1024.8mb 49f
2:00 16 17 mph 1024.7mb 49f
1:00 16 17 mph 1024.1mb 49f
12:00 21 23 mph 1023.7mb 49f
jue 04/27 11:00 21 22 mph 1023.5mb 48f
10:00 20 23 mph 1023.3mb 49f
9:00 20 21 mph 1022.8mb 48f
8:00 22 24 mph 1022.3mb 48f
7:00 13 14 mph 1021.9mb 48f
6:00 20 25 mph 1021.4mb 49f
5:00 17 20 mph 1021.4mb 50f
4:00 18 21 mph 1021.2mb 50f
3:00 17 21 mph 1021mb 50f
2:00 14 17 mph 1020.6mb 49f
1:00 23 25 mph 1020.2mb 49f
12:00 1 3 mph 1020.2mb 49f
11:00  -  mph 1019.8mb 47f
10:00 9 10 mph 1019.5mb 45f
9:00 5 6 mph 1019.2mb 47f
8:00 6
mph
1018.8mb 45f
7:00 10
mph
1018.7mb 44f
6:00 17 18 mph 1018.1mb 48f
5:00 9 10 mph 1018mb 47f
3:00 15 16 mph 1017.5mb 48f
2:00 18 20 mph 1017.4mb 48f
1:00 6 8 mph 1017.3mb 46f
12:00 17 20 mph 1016.8mb 47f
mié 04/26 11:00 17 20 mph 1016.4mb 48f
10:00 28 29 mph 1016.2mb 48f
9:00 23 26 mph 1015.7mb 48f
8:00 24 25 mph 1015mb 49f
7:00 22 24 mph 1014.7mb 49f
6:00 22 25 mph 1014.6mb 49f
5:00 22 23 mph 1014.3mb 49f
4:00 13 14 mph 1013.8mb 47f
3:00 14 15 mph 1013.7mb 49f
2:00 16 17 mph 1013.3mb 49f
1:00 24 28 mph 1013mb 49f
12:00 20 21 mph 1011.9mb 49f
11:00 20 22 mph 1011.7mb 48f
10:00 17 20 mph 1011.2mb 49f
9:00 15 17 mph 1010.6mb 49f
8:00 18 21 mph 1009.9mb 48f
7:00 15 16 mph 1009.5mb 48f
6:00 20 22 mph 1009mb 48f
5:00 17 18 mph 1009mb 48f
4:00 20 21 mph 1009.2mb 48f
3:00 21 23 mph 1008.9mb 48f
2:00 20 22 mph 1009.2mb 49f
1:00 26 28 mph 1008.3mb 49f
12:00 25 28 mph 1008.3mb 49f
mar 04/25 11:00 22 24 mph 1007.8mb 49f
10:00 14 16 mph 1007.1mb 50f
9:00 25 30 mph 1006.2mb 50f
8:00 32 36 mph 1005.5mb 50f
7:00 29 34 mph 1005.9mb 50f
6:00 31 33 mph 1006.4mb 51f
5:00 28 32 mph 1007.5mb 51f
4:00 26 30 mph 1008.5mb 50f
3:00 24 29 mph 1009.8mb 51f
2:00 24 28 mph 1011mb 51f
1:00 23 25 mph 1011.7mb 49f
12:00 23 25 mph 1012.3mb 50f